createdAt,value
2022-10-11T00:01:16.327Z,9.42
2022-10-11T00:03:42.911Z,9.48
2022-10-11T00:06:09.610Z,9.46
2022-10-11T00:08:36.094Z,9.38
2022-10-11T00:11:05.746Z,9.42
2022-10-11T00:13:32.518Z,9.38
2022-10-11T00:15:59.569Z,9.36
2022-10-11T00:18:26.409Z,9.32
2022-10-11T00:21:04.310Z,9.22
2022-10-11T00:23:30.861Z,9.28
2022-10-11T00:25:59.004Z,9.26
2022-10-11T00:28:25.281Z,9.24
2022-10-11T00:30:51.841Z,9.22
2022-10-11T00:33:18.066Z,9.20
2022-10-11T00:35:44.555Z,9.12
2022-10-11T00:38:11.077Z,9.18
2022-10-11T00:40:37.336Z,9.15
2022-10-11T00:43:03.658Z,9.13
2022-10-11T00:45:30.094Z,9.14
2022-10-11T00:47:59.024Z,9.15
2022-10-11T00:50:27.211Z,9.16
2022-10-11T00:52:56.668Z,9.18
2022-10-11T00:55:24.036Z,9.13
2022-10-11T00:57:52.687Z,9.27
2022-10-11T01:00:19.848Z,9.17
2022-10-11T01:02:46.360Z,9.25
2022-10-11T01:05:30.663Z,9.33
2022-10-11T01:07:59.221Z,9.28
2022-10-11T01:10:25.918Z,9.42
2022-10-11T01:12:55.178Z,9.46
2022-10-11T01:15:31.872Z,9.47
2022-10-11T01:18:31.768Z,9.50
2022-10-11T01:21:08.685Z,9.56
2022-10-11T01:23:50.051Z,9.46
2022-10-11T01:26:38.425Z,9.63
2022-10-11T01:29:13.373Z,9.62
2022-10-11T01:32:15.181Z,9.65
2022-10-11T01:35:03.324Z,9.65
2022-10-11T01:37:36.531Z,9.59
2022-10-11T01:40:13.261Z,9.54
2022-10-11T01:42:41.078Z,9.51
2022-10-11T01:45:15.879Z,9.50
2022-10-11T01:47:42.598Z,9.36
2022-10-11T01:50:30.983Z,9.54
2022-10-11T01:52:59.214Z,9.58
2022-10-11T01:55:38.015Z,9.55
2022-10-11T01:58:49.790Z,9.57
2022-10-11T02:01:42.275Z,9.68
2022-10-11T02:04:16.830Z,9.71
2022-10-11T02:06:56.322Z,9.71
2022-10-11T02:09:42.232Z,9.74
2022-10-11T02:12:13.691Z,9.77
2022-10-11T02:14:43.571Z,9.82
2022-10-11T02:17:18.768Z,9.75
2022-10-11T02:19:48.535Z,9.84
2022-10-11T02:22:28.128Z,9.77
2022-10-11T02:24:57.907Z,9.87
2022-10-11T02:27:27.300Z,9.88
2022-10-11T02:29:55.109Z,9.89
2022-10-11T02:32:23.858Z,9.89
2022-10-11T02:34:58.443Z,9.90
2022-10-11T02:37:41.782Z,9.81
2022-10-11T02:40:12.294Z,9.78
2022-10-11T02:42:44.322Z,9.70
2022-10-11T02:45:18.094Z,9.65
2022-10-11T02:47:45.041Z,9.63
2022-10-11T02:50:12.907Z,9.62
2022-10-11T02:52:39.246Z,9.50
2022-10-11T02:55:06.543Z,9.64
2022-10-11T02:57:32.792Z,9.61
2022-10-11T02:59:59.047Z,9.54
2022-10-11T03:02:25.559Z,9.59
2022-10-11T03:04:51.800Z,9.57
2022-10-11T03:07:18.023Z,9.55
2022-10-11T03:09:45.151Z,9.58
2022-10-11T03:12:11.440Z,9.58
2022-10-11T03:14:37.668Z,9.60
2022-10-11T03:17:30.873Z,9.63
2022-10-11T03:19:51.537Z,9.59
2022-10-11T03:22:18.055Z,9.68
2022-10-11T03:24:44.273Z,9.69
2022-10-11T03:27:10.554Z,9.57
2022-10-11T03:29:37.086Z,9.72
2022-10-11T03:32:03.513Z,9.73
2022-10-11T03:34:29.819Z,9.76
2022-10-11T03:36:56.357Z,9.79
2022-10-11T03:39:22.738Z,9.76
2022-10-11T03:41:48.975Z,9.88
2022-10-11T03:44:15.590Z,9.83
2022-10-11T03:46:41.830Z,9.89
2022-10-11T03:49:08.058Z,9.84
2022-10-11T03:51:34.737Z,9.83
2022-10-11T03:54:00.964Z,9.75
2022-10-11T03:56:27.254Z,9.71
2022-10-11T03:58:53.785Z,9.69
2022-10-11T04:01:20.164Z,9.69
2022-10-11T04:03:46.798Z,9.72
2022-10-11T04:06:13.019Z,9.68
2022-10-11T04:08:39.246Z,9.75
2022-10-11T04:11:05.880Z,9.71
2022-10-11T04:13:32.131Z,9.81
2022-10-11T04:15:58.372Z,9.81
2022-10-11T04:18:24.941Z,9.86
2022-10-11T04:20:51.194Z,9.87
2022-10-11T04:23:17.427Z,9.91
2022-10-11T04:25:45.448Z,9.94
2022-10-11T04:28:11.729Z,9.98
2022-10-11T04:30:38.004Z,10.00
2022-10-11T04:33:04.580Z,9.94
2022-10-11T04:35:30.980Z,9.91
2022-10-11T04:37:57.223Z,9.92
2022-10-11T04:40:23.942Z,9.98
2022-10-11T04:42:51.862Z,9.94
2022-10-11T04:45:18.103Z,9.95
2022-10-11T04:47:44.713Z,9.93
2022-10-11T04:50:11.027Z,9.86
2022-10-11T04:52:37.282Z,9.90
2022-10-11T04:55:04.185Z,9.97
2022-10-11T04:57:30.481Z,10.02
2022-10-11T04:59:56.722Z,10.08
2022-10-11T05:02:23.270Z,10.10
2022-10-11T05:04:49.532Z,10.13
2022-10-11T05:07:15.765Z,10.13
2022-10-11T05:09:42.383Z,9.91
2022-10-11T05:12:08.740Z,10.18
2022-10-11T05:14:34.991Z,10.18
2022-10-11T05:17:01.510Z,10.19
2022-10-11T05:19:27.838Z,10.18
2022-10-11T05:21:55.101Z,10.19
2022-10-11T05:24:21.784Z,10.11
2022-10-11T05:26:48.302Z,10.18
2022-10-11T05:29:15.823Z,10.05
2022-10-11T05:31:42.342Z,10.03
2022-10-11T05:34:08.594Z,10.16
2022-10-11T05:36:34.854Z,9.97
2022-10-11T05:39:01.420Z,10.10
2022-10-11T05:41:29.172Z,10.24
2022-10-11T05:43:55.441Z,10.29
2022-10-11T05:46:22.220Z,10.29
2022-10-11T05:48:48.434Z,10.33
2022-10-11T05:51:14.681Z,10.37
2022-10-11T05:53:41.342Z,10.34
2022-10-11T05:56:19.921Z,10.38
2022-10-11T05:58:46.511Z,10.28
2022-10-11T06:01:20.336Z,10.42
2022-10-11T06:03:47.146Z,10.40
2022-10-11T06:06:13.442Z,10.47
2022-10-11T06:08:39.853Z,10.56
2022-10-11T06:11:20.971Z,10.63
2022-10-11T06:13:47.573Z,10.72
2022-10-11T06:16:14.276Z,10.83
2022-10-11T06:18:40.748Z,10.87
2022-10-11T06:21:07.180Z,10.90
2022-10-11T06:23:33.803Z,10.98
2022-10-11T06:26:02.536Z,10.99
2022-10-11T06:28:29.523Z,11.10
2022-10-11T06:30:56.619Z,11.21
2022-10-11T06:33:22.946Z,11.25
2022-10-11T06:35:49.232Z,11.29
2022-10-11T06:38:15.831Z,11.34
2022-10-11T06:40:42.306Z,11.44
2022-10-11T06:43:08.565Z,11.54
2022-10-11T06:45:35.123Z,11.55
2022-10-11T06:48:02.274Z,11.62
2022-10-11T06:50:54.370Z,11.65
2022-10-11T06:53:15.130Z,11.67
2022-10-11T06:55:41.421Z,11.74
2022-10-11T06:58:07.837Z,11.78
2022-10-11T07:00:34.396Z,11.79
2022-10-11T07:03:00.704Z,11.83
2022-10-11T07:05:29.302Z,11.78
2022-10-11T07:07:55.855Z,11.87
2022-10-11T07:10:22.118Z,11.83
2022-10-11T07:12:48.366Z,11.71
2022-10-11T07:15:14.928Z,11.87
2022-10-11T07:17:42.211Z,11.61
2022-10-11T07:20:09.485Z,11.85
2022-10-11T07:22:36.052Z,11.89
2022-10-11T07:25:02.560Z,11.84
2022-10-11T07:27:28.865Z,11.89
2022-10-11T07:29:55.482Z,11.97
2022-10-11T07:32:21.976Z,11.94
2022-10-11T07:34:48.276Z,11.98
2022-10-11T07:37:14.826Z,11.93
2022-10-11T07:39:41.554Z,12.03
2022-10-11T07:42:09.831Z,12.00
2022-10-11T07:44:36.591Z,12.06
2022-10-11T07:47:04.163Z,12.10
2022-10-11T07:49:32.132Z,12.18
2022-10-11T07:51:58.677Z,12.22
2022-10-11T07:54:25.097Z,12.21
2022-10-11T07:56:51.429Z,12.18
2022-10-11T07:59:17.945Z,12.31
2022-10-11T08:01:44.410Z,12.38
2022-10-11T08:04:11.001Z,12.45
2022-10-11T08:06:37.337Z,12.46
2022-10-11T08:09:05.480Z,12.56
2022-10-11T08:11:35.194Z,12.59
2022-10-11T08:14:01.891Z,12.65
2022-10-11T08:16:28.247Z,12.68
2022-10-11T08:18:56.924Z,12.63
2022-10-11T08:21:23.411Z,12.72
2022-10-11T08:23:49.671Z,12.78
2022-10-11T08:26:16.265Z,12.85
2022-10-11T08:28:42.630Z,12.90
2022-10-11T08:31:12.562Z,12.83
2022-10-11T08:33:39.472Z,12.92
2022-10-11T08:36:07.470Z,12.91
2022-10-11T08:38:36.566Z,13.03
2022-10-11T08:41:03.516Z,12.94
2022-10-11T08:43:29.666Z,13.05
2022-10-11T08:45:58.362Z,13.02
2022-10-11T08:48:46.804Z,13.03
2022-10-11T08:51:22.657Z,13.12
2022-10-11T08:54:21.229Z,13.18
2022-10-11T08:56:47.842Z,13.25
2022-10-11T08:59:44.899Z,13.32
2022-10-11T09:03:02.911Z,13.37
2022-10-11T09:05:22.967Z,13.45
2022-10-11T09:08:21.286Z,13.53
2022-10-11T09:11:04.371Z,13.62
2022-10-11T09:13:43.763Z,13.65
2022-10-11T09:16:16.540Z,13.83
2022-10-11T09:18:53.136Z,13.97
2022-10-11T09:21:23.083Z,14.00
2022-10-11T09:24:04.451Z,14.13
2022-10-11T09:26:53.564Z,14.26
2022-10-11T09:29:29.460Z,14.37
2022-10-11T09:31:57.581Z,14.46
2022-10-11T09:34:26.610Z,14.49
2022-10-11T09:37:33.579Z,14.49
2022-10-11T09:40:12.119Z,14.56
2022-10-11T09:42:38.398Z,14.67
2022-10-11T09:45:19.166Z,14.71
2022-10-11T09:47:45.524Z,14.81
2022-10-11T09:50:26.213Z,14.95
2022-10-11T09:52:56.065Z,15.08
2022-10-11T09:55:40.889Z,15.18
2022-10-11T09:58:28.476Z,15.15
2022-10-11T10:01:05.124Z,15.15
2022-10-11T10:03:36.191Z,15.29
2022-10-11T10:06:23.903Z,15.25
2022-10-11T10:08:50.771Z,15.49
2022-10-11T10:11:18.017Z,15.70
2022-10-11T10:13:46.542Z,15.69
2022-10-11T10:16:33.515Z,15.99
2022-10-11T10:19:02.253Z,16.34
2022-10-11T10:21:32.884Z,16.50
2022-10-11T10:24:03.983Z,16.49
2022-10-11T10:26:32.265Z,16.69
2022-10-11T10:29:09.862Z,16.79
2022-10-11T10:34:37.012Z,16.83
2022-10-11T10:37:34.713Z,16.99
2022-10-11T10:40:14.086Z,17.15
2022-10-11T10:42:40.842Z,17.28
2022-10-11T10:45:18.662Z,17.27
2022-10-11T10:48:15.142Z,17.32
2022-10-11T10:50:55.441Z,17.15
2022-10-11T10:53:50.846Z,17.28
2022-10-11T10:56:33.215Z,17.30
2022-10-11T10:59:19.551Z,17.19
2022-10-11T11:01:56.520Z,17.32
2022-10-11T11:04:33.642Z,17.41
2022-10-11T11:07:20.817Z,17.48
2022-10-11T11:10:10.904Z,17.47
2022-10-11T11:13:04.885Z,17.53
2022-10-11T11:15:38.132Z,17.66
2022-10-11T11:18:31.797Z,17.67
2022-10-11T11:21:07.915Z,17.75
2022-10-11T11:23:57.642Z,17.60
2022-10-11T11:26:30.037Z,17.68
2022-10-11T11:29:08.819Z,17.66
2022-10-11T11:31:59.080Z,17.54
2022-10-11T11:34:38.913Z,17.53
2022-10-11T11:37:23.198Z,17.52
2022-10-11T11:39:52.415Z,17.50
2022-10-11T11:42:41.953Z,17.44
2022-10-11T11:45:14.244Z,17.52
2022-10-11T11:47:42.666Z,17.46
2022-10-11T11:50:23.835Z,17.31
2022-10-11T11:53:01.418Z,17.54
2022-10-11T11:55:28.587Z,17.54
2022-10-11T11:57:55.060Z,17.62
2022-10-11T12:00:23.539Z,17.66
2022-10-11T12:02:58.686Z,17.81
2022-10-11T12:05:31.931Z,17.84
2022-10-11T12:12:24.799Z,17.98
2022-10-11T12:14:52.622Z,17.98
2022-10-11T12:17:21.842Z,17.90
2022-10-11T12:20:24.176Z,17.77
2022-10-11T12:22:54.119Z,17.91
2022-10-11T12:25:23.415Z,17.96
2022-10-11T12:27:52.153Z,17.92
2022-10-11T12:30:48.248Z,17.83
2022-10-11T12:33:16.134Z,18.00
2022-10-11T12:35:54.759Z,17.84
2022-10-11T12:38:28.461Z,18.10
2022-10-11T12:41:08.672Z,18.21
2022-10-11T12:43:49.979Z,17.99
2022-10-11T12:46:29.731Z,18.04
2022-10-11T12:49:00.209Z,17.94
2022-10-11T12:51:37.546Z,17.91
2022-10-11T12:54:28.185Z,17.89
2022-10-11T12:57:26.682Z,17.82
2022-10-11T12:59:52.943Z,17.88
2022-10-11T13:02:42.554Z,17.83
2022-10-11T13:05:17.159Z,17.78
2022-10-11T13:07:43.778Z,17.63
2022-10-11T13:10:15.864Z,17.49
2022-10-11T13:12:43.606Z,17.44
2022-10-11T13:15:15.541Z,17.37
2022-10-11T13:17:42.227Z,17.26
2022-10-11T13:20:19.573Z,17.22
2022-10-11T13:22:49.336Z,17.20
2022-10-11T13:25:18.627Z,17.18
2022-10-11T13:27:44.969Z,17.14
2022-10-11T13:30:20.906Z,17.16
2022-10-11T13:32:47.555Z,17.16
2022-10-11T13:35:34.888Z,17.13
2022-10-11T13:38:02.847Z,17.08
2022-10-11T13:40:30.163Z,17.05
2022-10-11T13:42:56.782Z,17.03
2022-10-11T13:45:25.357Z,17.03
2022-10-11T13:47:53.957Z,16.90
2022-10-11T13:50:34.517Z,16.79
2022-10-11T13:53:24.848Z,16.77
2022-10-11T13:55:53.476Z,16.65
2022-10-11T13:58:40.280Z,16.64
2022-10-11T14:01:20.028Z,16.62
2022-10-11T14:03:54.911Z,16.58
2022-10-11T14:06:21.346Z,16.51
2022-10-11T14:08:51.576Z,16.43
2022-10-11T14:11:36.051Z,16.42
2022-10-11T14:14:28.209Z,16.42
2022-10-11T14:17:23.042Z,16.39
2022-10-11T14:20:17.044Z,16.30
2022-10-11T14:22:43.932Z,16.22
2022-10-11T14:25:11.049Z,16.29
2022-10-11T14:27:37.675Z,16.16
2022-10-11T14:30:25.212Z,16.21
2022-10-11T14:32:54.322Z,16.08
2022-10-11T14:35:29.312Z,16.14
2022-10-11T14:37:55.880Z,16.12
2022-10-11T14:40:24.484Z,16.11
2022-10-11T14:42:51.273Z,16.06
2022-10-11T14:45:18.299Z,16.06
2022-10-11T14:47:44.570Z,15.99
2022-10-11T14:50:27.295Z,15.94
2022-10-11T14:52:54.202Z,15.86
2022-10-11T14:55:20.526Z,15.85
2022-10-11T14:57:46.766Z,15.77
2022-10-11T15:00:22.803Z,15.66
2022-10-11T15:02:50.434Z,15.61
2022-10-11T15:05:17.129Z,15.45
2022-10-11T15:07:43.508Z,15.42
2022-10-11T15:10:26.051Z,15.33
2022-10-11T15:12:54.012Z,15.35
2022-10-11T15:15:23.078Z,15.28
2022-10-11T15:17:57.409Z,15.23
2022-10-11T15:20:27.379Z,15.21
2022-10-11T15:22:54.562Z,15.16
2022-10-11T15:25:21.344Z,15.12
2022-10-11T15:27:48.172Z,15.07
2022-10-11T15:30:20.989Z,15.02
2022-10-11T15:32:47.684Z,14.94
2022-10-11T15:35:14.257Z,14.89
2022-10-11T15:37:40.899Z,14.78
2022-10-11T15:40:27.179Z,14.78
2022-10-11T15:42:54.595Z,14.71
2022-10-11T15:45:22.104Z,14.67
2022-10-11T15:47:49.588Z,14.61
2022-10-11T15:50:34.633Z,14.57
2022-10-11T15:53:02.793Z,14.51
2022-10-11T15:55:30.242Z,14.48
2022-10-11T15:57:57.234Z,14.44
2022-10-11T16:00:25.160Z,14.40
2022-10-11T16:02:52.419Z,14.24
2022-10-11T16:05:24.657Z,14.22
2022-10-11T16:07:51.809Z,14.23
2022-10-11T16:10:19.293Z,14.15
2022-10-11T16:12:45.838Z,14.10
2022-10-11T16:15:12.410Z,14.05
2022-10-11T16:17:38.966Z,14.01
2022-10-11T16:20:07.101Z,13.97
2022-10-11T16:22:34.780Z,13.89
2022-10-11T16:25:02.305Z,13.92
2022-10-11T16:27:28.866Z,13.89
2022-10-11T16:29:55.114Z,13.88
2022-10-11T16:32:22.838Z,13.87
2022-10-11T16:34:49.129Z,13.84
2022-10-11T16:37:15.708Z,13.85
2022-10-11T16:39:42.518Z,13.79
2022-10-11T16:42:08.761Z,13.85
2022-10-11T16:44:37.853Z,13.88
2022-10-11T16:47:05.440Z,13.88
2022-10-11T16:49:31.737Z,13.88
2022-10-11T16:52:04.001Z,13.86
2022-10-11T16:54:31.405Z,13.89
2022-10-11T16:56:59.072Z,13.83
2022-10-11T16:59:25.355Z,13.88
2022-10-11T17:01:51.975Z,13.86
2022-10-11T17:04:18.242Z,13.87
2022-10-11T17:06:44.881Z,13.91
2022-10-11T17:09:11.663Z,13.92
2022-10-11T17:11:37.902Z,13.90
2022-10-11T17:14:05.877Z,13.89
2022-10-11T17:16:32.518Z,13.89
2022-10-11T17:18:58.762Z,13.91
2022-10-11T17:21:25.160Z,13.91
2022-10-11T17:23:51.805Z,13.87
2022-10-11T17:26:26.935Z,13.88
2022-10-11T17:28:54.883Z,13.88
2022-10-11T17:31:21.714Z,13.86
2022-10-11T17:33:48.156Z,13.86
2022-10-11T17:36:34.587Z,13.85
2022-10-11T17:39:06.061Z,13.84
2022-10-11T17:41:33.117Z,13.83
2022-10-11T17:47:46.012Z,13.80
2022-10-11T17:50:12.514Z,13.79
2022-10-11T17:52:38.743Z,13.79
2022-10-11T17:55:05.458Z,13.81
2022-10-11T17:57:31.971Z,13.79
2022-10-11T17:59:58.213Z,13.80
2022-10-11T18:02:24.531Z,13.79
2022-10-11T18:04:51.138Z,13.78
2022-10-11T18:07:17.364Z,13.71
2022-10-11T18:09:44.344Z,13.77
2022-10-11T18:12:10.870Z,13.68
2022-10-11T18:14:37.105Z,13.67
2022-10-11T18:17:03.610Z,13.79
2022-10-11T18:19:30.139Z,13.80
2022-10-11T18:21:56.385Z,13.81
2022-10-11T18:24:22.694Z,13.79
2022-10-11T18:26:49.245Z,13.73
2022-10-11T18:29:15.727Z,13.76
2022-10-11T18:31:42.133Z,13.64
2022-10-11T18:34:10.860Z,13.72
2022-10-11T18:36:37.881Z,13.63
2022-10-11T18:39:06.589Z,13.52
2022-10-11T18:41:34.020Z,13.63
2022-10-11T18:44:06.351Z,13.54
2022-10-11T18:46:33.486Z,13.56
2022-10-11T18:49:01.929Z,13.53
2022-10-11T18:51:33.528Z,13.50
2022-10-11T18:54:00.819Z,13.38
2022-10-11T18:56:28.426Z,13.47
2022-10-11T18:58:56.258Z,13.45
2022-10-11T19:01:25.839Z,13.42
2022-10-11T19:03:56.380Z,13.39
2022-10-11T19:06:29.590Z,13.39
2022-10-11T19:09:00.569Z,13.35
2022-10-11T19:11:27.712Z,13.22
2022-10-11T19:14:02.572Z,13.24
2022-10-11T19:16:30.235Z,13.25
2022-10-11T19:18:57.064Z,13.21
2022-10-11T19:21:23.574Z,13.18
2022-10-11T19:23:50.579Z,13.12
2022-10-11T19:26:20.007Z,13.17
2022-10-11T19:28:46.825Z,13.15
2022-10-11T19:31:16.788Z,13.15
2022-10-11T19:33:44.767Z,13.15
2022-10-11T19:36:13.175Z,13.14
2022-10-11T19:38:43.457Z,13.14
2022-10-11T19:41:09.710Z,13.13
2022-10-11T19:43:35.949Z,13.14
2022-10-11T19:46:06.533Z,13.22
2022-10-11T19:48:32.962Z,13.22
2022-10-11T19:51:08.332Z,13.22
2022-10-11T19:53:35.588Z,13.21
2022-10-11T19:56:03.439Z,13.23
2022-10-11T19:58:30.142Z,13.17
2022-10-11T20:01:05.962Z,13.19
2022-10-11T20:03:32.885Z,13.23
2022-10-11T20:06:00.536Z,13.22
2022-10-11T20:08:28.448Z,13.12
2022-10-11T20:10:55.272Z,13.22
2022-10-11T20:13:21.573Z,13.19
2022-10-11T20:15:47.823Z,13.19
2022-10-11T20:18:14.347Z,13.19
2022-10-11T20:20:50.840Z,13.04
2022-10-11T20:23:18.265Z,13.15
2022-10-11T20:25:44.848Z,13.12
2022-10-11T20:28:11.074Z,13.21
2022-10-11T20:30:43.873Z,13.21
2022-10-11T20:33:10.148Z,13.23
2022-10-11T20:35:36.453Z,13.18
2022-10-11T20:38:02.957Z,13.23
2022-10-11T20:40:29.195Z,13.15
2022-10-11T20:42:55.417Z,13.25
2022-10-11T20:45:21.934Z,13.25
2022-10-11T20:47:48.172Z,13.23
2022-10-11T20:50:14.447Z,13.19
2022-10-11T20:52:40.961Z,13.18
2022-10-11T20:55:07.523Z,13.11
2022-10-11T20:57:34.000Z,13.01
2022-10-11T21:00:00.717Z,12.94
2022-10-11T21:02:26.974Z,12.76
2022-10-11T21:04:53.195Z,12.82
2022-10-11T21:07:19.711Z,12.80
2022-10-11T21:09:45.937Z,12.73
2022-10-11T21:12:12.171Z,12.56
2022-10-11T21:14:38.688Z,12.55
2022-10-11T21:17:04.928Z,12.48
2022-10-11T21:19:31.138Z,12.46
2022-10-11T21:21:57.658Z,12.39
2022-10-11T21:24:23.894Z,12.36
2022-10-11T21:26:50.201Z,12.26
2022-10-11T21:29:17.337Z,12.21
2022-10-11T21:31:43.602Z,12.08
2022-10-11T21:34:09.888Z,12.06
2022-10-11T21:36:36.518Z,12.02
2022-10-11T21:39:02.964Z,11.96
2022-10-11T21:41:30.069Z,11.84
2022-10-11T21:43:57.330Z,11.75
2022-10-11T21:46:41.712Z,11.52
2022-10-11T21:49:12.570Z,11.59
2022-10-11T21:51:38.844Z,11.52
2022-10-11T21:54:05.538Z,11.54
2022-10-11T21:56:32.120Z,11.45
2022-10-11T21:58:58.358Z,11.33
2022-10-11T22:01:24.847Z,11.29
2022-10-11T22:03:53.276Z,11.29
2022-10-11T22:06:19.535Z,11.28
2022-10-11T22:08:45.797Z,11.17
2022-10-11T22:11:12.404Z,11.24
2022-10-11T22:13:38.750Z,11.13
2022-10-11T22:16:10.351Z,11.16
2022-10-11T22:18:37.335Z,11.02
2022-10-11T22:21:17.582Z,11.01
2022-10-11T22:23:46.150Z,11.04
2022-10-11T22:26:14.797Z,11.12
2022-10-11T22:28:41.258Z,11.12
2022-10-11T22:31:08.912Z,11.06
2022-10-11T22:33:35.909Z,11.18
2022-10-11T22:36:04.731Z,11.07
2022-10-11T22:38:31.359Z,11.27
2022-10-11T22:40:58.506Z,11.21
2022-10-11T22:43:24.840Z,11.22
2022-10-11T22:45:51.357Z,11.09
2022-10-11T22:48:17.628Z,10.95
2022-10-11T22:50:43.921Z,10.95
2022-10-11T22:53:12.536Z,10.85
2022-10-11T22:55:38.974Z,10.97
2022-10-11T22:58:05.306Z,11.03
2022-10-11T23:00:32.159Z,11.03
2022-10-11T23:02:58.557Z,10.99
2022-10-11T23:05:24.887Z,11.19
2022-10-11T23:07:51.434Z,11.26
2022-10-11T23:10:18.121Z,11.14
2022-10-11T23:12:44.595Z,11.27
2022-10-11T23:15:12.105Z,11.21
2022-10-11T23:17:38.718Z,11.12
2022-10-11T23:20:05.894Z,11.15
2022-10-11T23:22:32.571Z,11.10
2022-10-11T23:24:58.841Z,11.08
2022-10-11T23:27:25.085Z,11.20
2022-10-11T23:29:51.607Z,11.18
2022-10-11T23:32:17.904Z,11.22
2022-10-11T23:34:44.129Z,11.20
2022-10-11T23:37:10.642Z,11.07
2022-10-11T23:39:37.057Z,11.15
2022-10-11T23:42:03.402Z,11.03
2022-10-11T23:44:29.997Z,11.00
2022-10-11T23:46:56.239Z,10.87
2022-10-11T23:49:22.464Z,10.80
2022-10-11T23:51:49.062Z,10.91
2022-10-11T23:54:15.311Z,10.97
2022-10-11T23:56:41.593Z,10.93
2022-10-11T23:59:08.179Z,10.84
